createdAt,value
2023-09-21T00:01:49.482Z,12.98
2023-09-21T00:04:17.490Z,10.40
2023-09-21T00:06:45.974Z,11.25
2023-09-21T00:09:14.162Z,9.00
2023-09-21T00:11:43.564Z,11.48
2023-09-21T00:14:11.919Z,11.63
2023-09-21T00:16:42.485Z,12.25
2023-09-21T00:19:11.962Z,10.27
2023-09-21T00:21:39.979Z,13.75
2023-09-21T00:24:17.491Z,7.85
2023-09-21T00:26:48.959Z,8.77
2023-09-21T00:29:17.457Z,9.73
2023-09-21T00:31:45.555Z,11.43
2023-09-21T00:34:14.917Z,9.30
2023-09-21T00:36:44.245Z,12.52
2023-09-21T00:39:13.955Z,8.75
2023-09-21T00:41:42.123Z,13.25
2023-09-21T00:44:11.211Z,10.68
2023-09-21T00:46:39.948Z,15.13
2023-09-21T00:49:08.623Z,6.95
2023-09-21T00:51:40.012Z,8.80
2023-09-21T00:54:11.279Z,6.90
2023-09-21T00:56:40.919Z,7.20
2023-09-21T00:59:08.972Z,8.38
2023-09-21T01:01:39.435Z,8.75
2023-09-21T01:04:08.725Z,7.47
2023-09-21T01:06:40.438Z,6.40
2023-09-21T01:09:10.726Z,9.75
2023-09-21T01:11:39.914Z,9.07
2023-09-21T01:14:08.577Z,6.97
2023-09-21T01:16:36.716Z,7.70
2023-09-21T01:19:04.783Z,7.32
2023-09-21T01:21:37.363Z,9.52
2023-09-21T01:24:08.081Z,9.73
2023-09-21T01:26:36.213Z,6.82
2023-09-21T01:29:05.075Z,10.98
2023-09-21T01:31:33.104Z,7.93
2023-09-21T01:34:01.990Z,8.57
2023-09-21T01:36:30.007Z,9.23
2023-09-21T01:38:59.978Z,10.10
2023-09-21T01:41:31.040Z,7.50
2023-09-21T01:43:59.045Z,6.80
2023-09-21T01:46:28.163Z,7.45
2023-09-21T01:48:56.346Z,10.88
2023-09-21T01:51:24.334Z,7.70
2023-09-21T01:53:54.676Z,10.43
2023-09-21T01:56:22.853Z,8.73
2023-09-21T01:58:52.214Z,9.18
2023-09-21T02:01:20.808Z,9.00
2023-09-21T02:03:48.979Z,11.05
2023-09-21T02:06:17.465Z,8.75
2023-09-21T02:08:46.141Z,11.10
2023-09-21T02:11:14.922Z,8.43
2023-09-21T02:13:43.487Z,8.45
2023-09-21T02:16:16.191Z,9.15
2023-09-21T02:18:46.416Z,12.63
2023-09-21T02:21:18.777Z,8.60
2023-09-21T02:23:47.185Z,9.95
2023-09-21T02:26:15.582Z,7.05
2023-09-21T02:28:43.981Z,9.43
2023-09-21T02:31:14.111Z,8.55
2023-09-21T02:33:44.406Z,8.80
2023-09-21T02:36:19.382Z,7.32
2023-09-21T02:38:51.235Z,10.88
2023-09-21T02:41:19.556Z,8.73
2023-09-21T02:43:47.840Z,9.60
2023-09-21T02:46:17.753Z,9.10
2023-09-21T02:48:47.475Z,9.80
2023-09-21T02:51:17.078Z,9.95
2023-09-21T02:53:45.552Z,8.77
2023-09-21T02:56:13.733Z,9.18
2023-09-21T02:58:43.293Z,10.65
2023-09-21T03:01:13.846Z,7.57
2023-09-21T03:03:43.349Z,10.70
2023-09-21T03:06:13.876Z,8.93
2023-09-21T03:08:43.606Z,12.65
2023-09-21T03:11:12.529Z,8.70
2023-09-21T03:13:40.538Z,8.65
2023-09-21T03:16:11.767Z,9.95
2023-09-21T03:18:40.123Z,11.90
2023-09-21T03:21:15.811Z,9.35
2023-09-21T03:23:46.123Z,9.48
2023-09-21T03:26:15.566Z,9.77
2023-09-21T03:28:46.055Z,12.65
2023-09-21T03:31:17.468Z,8.18
2023-09-21T03:33:47.278Z,8.52
2023-09-21T03:36:18.080Z,6.60
2023-09-21T03:38:48.663Z,9.38
2023-09-21T03:41:17.129Z,9.95
2023-09-21T03:43:45.210Z,8.95
2023-09-21T03:46:13.646Z,9.35
2023-09-21T03:48:41.967Z,14.68
2023-09-21T03:51:11.905Z,8.23
2023-09-21T03:53:41.415Z,9.27
2023-09-21T03:56:09.402Z,6.65
2023-09-21T03:58:37.444Z,14.35
2023-09-21T04:01:10.648Z,12.25
2023-09-21T04:03:39.042Z,8.45
2023-09-21T04:06:07.716Z,13.77
2023-09-21T04:08:36.264Z,7.35
2023-09-21T04:11:05.703Z,11.70
2023-09-21T04:13:34.135Z,9.73
2023-09-21T04:16:06.863Z,9.13
2023-09-21T04:18:35.812Z,12.73
2023-09-21T04:21:19.074Z,11.57
2023-09-21T04:23:48.020Z,9.07
2023-09-21T04:26:19.488Z,8.73
2023-09-21T04:28:49.244Z,8.05
2023-09-21T04:31:17.338Z,12.23
2023-09-21T04:33:46.382Z,10.30
2023-09-21T04:36:14.597Z,8.32
2023-09-21T04:38:43.971Z,12.02
2023-09-21T04:41:16.398Z,8.77
2023-09-21T04:43:46.503Z,10.95
2023-09-21T04:46:15.081Z,8.77
2023-09-21T04:48:43.920Z,11.38
2023-09-21T04:51:15.612Z,10.32
2023-09-21T04:53:44.123Z,9.25
2023-09-21T04:56:12.721Z,13.02
2023-09-21T04:58:40.737Z,13.00
2023-09-21T05:01:11.973Z,36.83
2023-09-21T05:03:40.801Z,9.23
2023-09-21T05:06:09.430Z,11.27
2023-09-21T05:08:37.693Z,13.68
2023-09-21T05:11:06.233Z,12.98
2023-09-21T05:13:34.994Z,9.75
2023-09-21T05:16:03.589Z,9.68
2023-09-21T05:18:33.263Z,8.75
2023-09-21T05:21:02.914Z,10.70
2023-09-21T05:23:30.886Z,10.52
2023-09-21T05:25:59.135Z,10.93
2023-09-21T05:28:27.081Z,9.52
2023-09-21T05:30:56.145Z,7.35
2023-09-21T05:33:24.762Z,8.07
2023-09-21T05:35:55.186Z,10.52
2023-09-21T05:38:23.173Z,9.20
2023-09-21T05:40:51.253Z,7.47
2023-09-21T05:43:19.199Z,8.85
2023-09-21T05:45:47.475Z,9.77
2023-09-21T05:48:19.093Z,8.95
2023-09-21T05:50:47.418Z,9.88
2023-09-21T05:53:16.943Z,10.25
2023-09-21T05:55:46.123Z,7.50
2023-09-21T05:58:14.101Z,10.15
2023-09-21T06:00:42.449Z,10.73
2023-09-21T06:03:10.916Z,9.45
2023-09-21T06:05:39.161Z,8.85
2023-09-21T06:08:07.783Z,11.63
2023-09-21T06:10:37.260Z,8.23
2023-09-21T06:13:09.031Z,9.60
2023-09-21T06:15:38.315Z,7.68
2023-09-21T06:18:07.247Z,10.23
2023-09-21T06:20:36.291Z,8.50
2023-09-21T06:23:08.101Z,10.60
2023-09-21T06:25:37.912Z,7.22
2023-09-21T06:28:07.983Z,11.30
2023-09-21T06:30:35.976Z,9.95
2023-09-21T06:33:04.229Z,9.85
2023-09-21T06:35:32.365Z,8.43
2023-09-21T06:38:01.238Z,9.57
2023-09-21T06:40:29.701Z,9.57
2023-09-21T06:42:59.239Z,9.52
2023-09-21T06:45:32.507Z,8.02
2023-09-21T06:48:02.366Z,10.48
2023-09-21T06:50:31.246Z,8.68
2023-09-21T06:52:59.313Z,9.85
2023-09-21T06:55:28.481Z,9.70
2023-09-21T06:57:56.666Z,9.82
2023-09-21T07:00:26.475Z,8.57
2023-09-21T07:02:55.267Z,9.10
2023-09-21T07:05:23.379Z,7.25
2023-09-21T07:07:51.421Z,9.05
2023-09-21T07:10:19.665Z,9.23
2023-09-21T07:12:47.683Z,9.10
2023-09-21T07:15:15.689Z,11.65
2023-09-21T07:17:45.546Z,8.85
2023-09-21T07:20:14.296Z,11.52
2023-09-21T07:22:42.314Z,10.00
2023-09-21T07:25:10.916Z,11.65
2023-09-21T07:27:39.214Z,11.32
2023-09-21T07:30:08.888Z,12.50
2023-09-21T07:32:37.085Z,10.05
2023-09-21T07:35:07.528Z,10.68
2023-09-21T07:37:35.702Z,11.38
2023-09-21T07:40:07.728Z,11.25
2023-09-21T07:42:36.254Z,12.30
2023-09-21T07:45:04.677Z,12.73
2023-09-21T07:47:32.861Z,10.70
2023-09-21T07:50:00.925Z,10.55
2023-09-21T07:52:31.403Z,11.90
2023-09-21T07:55:03.705Z,13.20
2023-09-21T07:57:34.283Z,13.40
2023-09-21T08:00:03.415Z,9.90
2023-09-21T08:02:32.096Z,12.30
2023-09-21T08:05:01.113Z,14.25
2023-09-21T08:07:31.590Z,11.70
2023-09-21T08:10:00.374Z,12.43
2023-09-21T08:12:29.010Z,12.57
2023-09-21T08:14:57.034Z,10.95
2023-09-21T08:17:25.111Z,13.38
2023-09-21T08:19:53.115Z,11.57
2023-09-21T08:22:21.203Z,14.63
2023-09-21T08:24:51.992Z,8.63
2023-09-21T08:27:19.997Z,11.82
2023-09-21T08:29:49.079Z,11.30
2023-09-21T08:32:17.305Z,14.60
2023-09-21T08:34:46.385Z,12.75
2023-09-21T08:37:14.376Z,14.43
2023-09-21T08:39:45.076Z,14.70
2023-09-21T08:42:16.066Z,11.00
2023-09-21T08:44:45.846Z,12.40
2023-09-21T08:47:31.411Z,15.02
2023-09-21T08:50:05.023Z,12.88
2023-09-21T08:52:36.039Z,12.73
2023-09-21T08:55:04.927Z,14.10
2023-09-21T08:57:34.645Z,14.20
2023-09-21T09:00:06.353Z,13.63
2023-09-21T09:02:36.507Z,12.75
2023-09-21T09:05:08.151Z,11.02
2023-09-21T09:07:41.236Z,12.30
2023-09-21T09:10:12.059Z,9.95
2023-09-21T09:12:42.658Z,11.13
2023-09-21T09:15:12.209Z,14.60
2023-09-21T09:17:41.686Z,12.32
2023-09-21T09:20:11.004Z,12.45
2023-09-21T09:22:39.952Z,13.05
2023-09-21T09:25:10.821Z,12.93
2023-09-21T09:27:46.292Z,14.65
2023-09-21T09:30:14.952Z,14.18
2023-09-21T09:32:43.931Z,15.13
2023-09-21T09:35:15.018Z,16.40
2023-09-21T09:37:44.645Z,13.32
2023-09-21T09:40:19.949Z,13.68
2023-09-21T09:42:53.041Z,15.23
2023-09-21T09:45:27.274Z,18.55
2023-09-21T09:47:57.665Z,16.23
2023-09-21T09:50:27.949Z,13.77
2023-09-21T09:53:06.340Z,12.30
2023-09-21T09:55:39.993Z,15.35
2023-09-21T09:58:09.729Z,15.98
2023-09-21T10:00:39.503Z,16.88
2023-09-21T10:03:10.833Z,13.25
2023-09-21T10:05:40.160Z,18.23
2023-09-21T10:08:09.973Z,17.92
2023-09-21T10:10:45.482Z,12.57
2023-09-21T10:13:18.096Z,15.75
2023-09-21T10:15:52.235Z,16.77
2023-09-21T10:18:31.217Z,19.35
2023-09-21T10:21:00.073Z,17.92
2023-09-21T10:23:29.413Z,19.25
2023-09-21T10:25:57.958Z,16.55
2023-09-21T10:28:44.221Z,18.70
2023-09-21T10:31:24.251Z,17.40
2023-09-21T10:34:15.230Z,15.07
2023-09-21T10:36:47.178Z,15.13
2023-09-21T10:39:27.263Z,14.57
2023-09-21T10:41:57.716Z,15.20
2023-09-21T10:45:04.321Z,11.95
2023-09-21T10:47:39.805Z,19.50
2023-09-21T10:50:11.579Z,14.27
2023-09-21T10:52:43.755Z,14.00
2023-09-21T10:55:14.364Z,13.02
2023-09-21T10:57:43.658Z,12.55
2023-09-21T11:00:19.680Z,14.05
2023-09-21T11:02:50.873Z,15.98
2023-09-21T11:05:21.276Z,15.73
2023-09-21T11:07:53.087Z,13.73
2023-09-21T11:10:22.022Z,14.75
2023-09-21T11:12:50.571Z,15.75
2023-09-21T11:15:20.602Z,18.63
2023-09-21T11:17:49.636Z,16.83
2023-09-21T11:20:21.918Z,17.77
2023-09-21T11:22:52.933Z,17.00
2023-09-21T11:25:24.009Z,15.98
2023-09-21T11:28:00.560Z,24.92
2023-09-21T11:30:30.606Z,18.23
2023-09-21T11:32:59.990Z,14.05
2023-09-21T11:35:29.749Z,19.25
2023-09-21T11:38:00.815Z,19.52
2023-09-21T11:40:29.053Z,24.55
2023-09-21T11:43:01.508Z,14.88
2023-09-21T11:45:31.365Z,21.48
2023-09-21T11:48:00.843Z,20.77
2023-09-21T11:50:31.900Z,24.00
2023-09-21T11:53:01.795Z,17.58
2023-09-21T11:55:30.844Z,20.15
2023-09-21T11:58:08.093Z,21.35
2023-09-21T12:00:50.529Z,24.20
2023-09-21T12:03:22.949Z,24.73
2023-09-21T12:05:52.880Z,22.10
2023-09-21T12:08:23.193Z,22.08
2023-09-21T12:10:53.837Z,23.88
2023-09-21T12:13:22.285Z,25.95
2023-09-21T12:15:56.777Z,22.55
2023-09-21T12:18:28.377Z,26.45
2023-09-21T12:20:59.130Z,24.35
2023-09-21T12:23:28.050Z,29.95
2023-09-21T12:25:57.385Z,28.08
2023-09-21T12:28:25.830Z,28.90
2023-09-21T12:30:55.987Z,28.35
2023-09-21T12:35:55.620Z,24.40
2023-09-21T12:38:23.866Z,27.48
2023-09-21T12:40:54.269Z,26.27
2023-09-21T12:43:22.826Z,33.75
2023-09-21T12:45:51.681Z,23.58
2023-09-21T12:48:21.352Z,25.13
2023-09-21T12:50:49.489Z,28.85
2023-09-21T12:53:17.582Z,30.30
2023-09-21T12:55:47.545Z,30.30
2023-09-21T12:58:15.801Z,21.27
2023-09-21T13:00:44.051Z,29.23
2023-09-21T13:03:14.448Z,29.38
2023-09-21T13:05:46.542Z,33.10
2023-09-21T13:08:18.415Z,28.23
2023-09-21T13:10:46.562Z,32.15
2023-09-21T13:13:14.849Z,28.90
2023-09-21T13:15:42.974Z,27.50
2023-09-21T13:18:12.424Z,29.85
2023-09-21T13:20:40.676Z,29.30
2023-09-21T13:23:11.207Z,25.85
2023-09-21T13:25:39.681Z,25.58
2023-09-21T13:28:08.085Z,25.80
2023-09-21T13:30:36.776Z,28.38
2023-09-21T13:33:05.646Z,26.58
2023-09-21T13:35:35.041Z,24.98
2023-09-21T13:38:03.234Z,23.73
2023-09-21T13:40:33.025Z,22.83
2023-09-21T13:43:02.112Z,21.27
2023-09-21T13:45:30.666Z,26.48
2023-09-21T13:47:59.144Z,22.58
2023-09-21T13:50:27.232Z,23.27
2023-09-21T13:52:55.325Z,20.45
2023-09-21T13:55:25.422Z,23.55
2023-09-21T13:57:55.666Z,22.63
2023-09-21T14:00:23.903Z,21.27
2023-09-21T14:02:52.245Z,26.25
2023-09-21T14:05:24.297Z,20.08
2023-09-21T14:07:52.913Z,23.35
2023-09-21T14:10:21.417Z,25.15
2023-09-21T14:12:51.965Z,20.30
2023-09-21T14:15:22.625Z,21.20
2023-09-21T14:17:50.862Z,27.63
2023-09-21T14:20:20.451Z,25.98
2023-09-21T14:22:48.573Z,31.27
2023-09-21T14:25:17.131Z,51.53
2023-09-21T14:27:45.605Z,33.53
2023-09-21T14:30:16.703Z,30.10
2023-09-21T14:32:48.233Z,31.60
2023-09-21T14:35:16.657Z,32.28
2023-09-21T14:37:44.797Z,34.00
2023-09-21T14:40:13.875Z,33.42
2023-09-21T14:42:42.128Z,32.35
2023-09-21T14:45:11.181Z,33.83
2023-09-21T14:47:39.556Z,35.40
2023-09-21T14:50:10.803Z,33.78
2023-09-21T14:52:39.151Z,37.67
2023-09-21T14:55:07.958Z,30.25
2023-09-21T14:57:36.093Z,36.80
2023-09-21T15:00:08.117Z,34.13
2023-09-21T15:02:37.513Z,33.58
2023-09-21T15:05:08.187Z,36.28
2023-09-21T15:07:38.647Z,39.97
2023-09-21T15:10:07.682Z,33.85
2023-09-21T15:12:36.205Z,30.85
2023-09-21T15:15:04.930Z,37.67
2023-09-21T15:17:33.158Z,37.00
2023-09-21T15:20:01.546Z,41.45
2023-09-21T15:22:30.047Z,37.50
2023-09-21T15:25:00.164Z,34.90
2023-09-21T15:27:29.044Z,35.10
2023-09-21T15:29:57.475Z,41.50
2023-09-21T15:32:25.909Z,36.58
2023-09-21T15:34:54.445Z,39.70
2023-09-21T15:37:23.141Z,32.58
2023-09-21T15:39:51.175Z,43.33
2023-09-21T15:42:21.556Z,38.42
2023-09-21T15:44:49.847Z,39.97
2023-09-21T15:47:17.970Z,41.63
2023-09-21T15:49:46.423Z,40.05
2023-09-21T15:52:14.619Z,38.92
2023-09-21T15:54:42.748Z,39.85
2023-09-21T15:57:11.584Z,38.42
2023-09-21T15:59:41.273Z,39.13
2023-09-21T16:02:10.693Z,38.65
2023-09-21T16:04:39.479Z,37.05
2023-09-21T16:07:07.760Z,34.25
2023-09-21T16:09:35.783Z,33.33
2023-09-21T16:12:04.058Z,35.60
2023-09-21T16:14:32.237Z,33.15
2023-09-21T16:17:04.405Z,34.75
2023-09-21T16:19:32.698Z,35.08
2023-09-21T16:22:01.029Z,35.35
2023-09-21T16:24:31.294Z,32.15
2023-09-21T16:27:00.099Z,30.95
2023-09-21T16:29:28.252Z,32.25
2023-09-21T16:31:56.512Z,38.55
2023-09-21T16:34:27.150Z,33.15
2023-09-21T16:36:55.399Z,34.83
2023-09-21T16:39:25.273Z,27.77
2023-09-21T16:41:53.434Z,32.67
2023-09-21T16:44:22.184Z,27.75
2023-09-21T16:46:50.822Z,35.17
2023-09-21T16:49:21.978Z,24.27
2023-09-21T16:51:51.514Z,27.20
2023-09-21T16:54:19.829Z,28.15
2023-09-21T16:56:49.009Z,29.52
2023-09-21T16:59:17.583Z,26.45
2023-09-21T17:01:45.889Z,27.13
2023-09-21T17:04:14.371Z,23.77
2023-09-21T17:06:42.486Z,22.05
2023-09-21T17:09:13.142Z,23.13
2023-09-21T17:11:41.508Z,22.63
2023-09-21T17:14:09.514Z,21.13
2023-09-21T17:16:37.824Z,24.65
2023-09-21T17:19:07.306Z,29.15
2023-09-21T17:21:38.243Z,26.90
2023-09-21T17:24:06.938Z,29.10
2023-09-21T17:26:36.720Z,22.33
2023-09-21T17:29:04.866Z,29.08
2023-09-21T17:31:33.228Z,22.77
2023-09-21T17:34:02.384Z,25.73
2023-09-21T17:36:30.772Z,20.40
2023-09-21T17:38:58.925Z,20.77
2023-09-21T17:41:27.950Z,18.27
2023-09-21T17:43:57.998Z,17.73
2023-09-21T17:46:26.405Z,17.80
2023-09-21T17:48:54.658Z,18.83
2023-09-21T17:51:23.065Z,14.88
2023-09-21T17:53:51.146Z,15.45
2023-09-21T17:56:19.496Z,14.65
2023-09-21T17:58:47.757Z,19.70
2023-09-21T18:01:17.959Z,15.85
2023-09-21T18:03:46.476Z,16.45
2023-09-21T18:06:19.603Z,16.02
2023-09-21T18:08:47.733Z,15.38
2023-09-21T18:11:16.800Z,15.85
2023-09-21T18:13:49.357Z,14.65
2023-09-21T18:16:18.831Z,16.80
2023-09-21T18:18:47.943Z,19.42
2023-09-21T18:21:16.399Z,11.45
2023-09-21T18:23:45.082Z,14.43
2023-09-21T18:26:14.556Z,11.10
2023-09-21T18:28:43.372Z,15.60
2023-09-21T18:31:13.012Z,22.08
2023-09-21T18:33:43.366Z,16.15
2023-09-21T18:36:11.890Z,22.17
2023-09-21T18:38:40.036Z,22.58
2023-09-21T18:41:08.128Z,23.13
2023-09-21T18:43:38.772Z,16.45
2023-09-21T18:46:06.913Z,19.83
2023-09-21T18:48:36.018Z,22.77
2023-09-21T18:51:06.825Z,22.27
2023-09-21T18:53:35.053Z,23.60
2023-09-21T18:56:03.458Z,22.35
2023-09-21T18:58:31.459Z,22.13
2023-09-21T19:00:59.750Z,18.30
2023-09-21T19:03:35.763Z,19.27
2023-09-21T19:06:08.456Z,17.45
2023-09-21T19:08:36.717Z,20.48
2023-09-21T19:11:06.164Z,16.05
2023-09-21T19:13:34.347Z,10.70
2023-09-21T19:16:03.232Z,15.27
2023-09-21T19:18:31.454Z,10.55
2023-09-21T19:20:59.560Z,12.85
2023-09-21T19:23:30.667Z,11.40
2023-09-21T19:25:58.731Z,8.43
2023-09-21T19:28:28.563Z,9.85
2023-09-21T19:30:57.536Z,8.57
2023-09-21T19:33:25.752Z,9.38
2023-09-21T19:35:55.468Z,12.32
2023-09-21T19:38:24.557Z,9.70
2023-09-21T19:40:54.440Z,7.75
2023-09-21T19:43:22.696Z,7.70
2023-09-21T19:45:50.871Z,8.23
2023-09-21T19:48:19.246Z,7.60
2023-09-21T19:50:47.520Z,5.95
2023-09-21T19:53:16.324Z,9.57
2023-09-21T19:55:44.736Z,6.68
2023-09-21T19:58:15.707Z,8.75
2023-09-21T20:01:01.354Z,6.60
2023-09-21T20:03:32.600Z,6.40
2023-09-21T20:06:04.760Z,8.48
2023-09-21T20:08:33.191Z,8.57
2023-09-21T20:11:11.968Z,7.97
2023-09-21T20:13:42.862Z,6.18
2023-09-21T20:16:12.252Z,10.73
2023-09-21T20:18:40.631Z,10.93
2023-09-21T20:21:12.184Z,13.45
2023-09-21T20:23:41.258Z,6.40
2023-09-21T20:26:11.009Z,12.52
2023-09-21T20:28:39.820Z,8.65
2023-09-21T20:31:11.487Z,13.93
2023-09-21T20:33:39.730Z,9.68
2023-09-21T20:36:08.886Z,9.65
2023-09-21T20:38:37.071Z,11.85
2023-09-21T20:41:05.661Z,10.85
2023-09-21T20:43:33.908Z,7.65
2023-09-21T20:46:02.084Z,10.30
2023-09-21T20:48:32.140Z,10.07
2023-09-21T20:51:00.733Z,10.02
2023-09-21T20:53:29.410Z,7.53
2023-09-21T20:55:57.516Z,7.47
2023-09-21T20:58:25.663Z,9.95
2023-09-21T21:00:53.897Z,8.50
2023-09-21T21:03:24.287Z,12.30
2023-09-21T21:05:53.987Z,10.52
2023-09-21T21:08:25.091Z,12.00
2023-09-21T21:10:53.280Z,7.63
2023-09-21T21:13:21.600Z,12.15
2023-09-21T21:15:49.826Z,8.20
2023-09-21T21:18:18.005Z,10.50
2023-09-21T21:20:46.568Z,8.07
2023-09-21T21:23:16.146Z,9.52
2023-09-21T21:25:47.009Z,7.10
2023-09-21T21:28:15.218Z,6.57
2023-09-21T21:30:43.550Z,7.80
2023-09-21T21:33:11.740Z,8.07
2023-09-21T21:35:40.279Z,8.82
2023-09-21T21:38:08.876Z,11.48
2023-09-21T21:40:41.251Z,8.30
2023-09-21T21:43:09.674Z,9.18
2023-09-21T21:45:37.880Z,6.55
2023-09-21T21:48:07.133Z,7.82
2023-09-21T21:50:35.794Z,7.93
2023-09-21T21:53:04.441Z,7.30
2023-09-21T21:55:36.868Z,7.60
2023-09-21T21:58:06.715Z,8.38
2023-09-21T22:00:40.212Z,7.03
2023-09-21T22:03:08.571Z,12.00
2023-09-21T22:05:39.324Z,9.00
2023-09-21T22:08:07.845Z,6.32
2023-09-21T22:10:37.532Z,7.28
2023-09-21T22:13:07.134Z,5.75
2023-09-21T22:15:37.805Z,7.00
2023-09-21T22:18:08.609Z,6.72
2023-09-21T22:20:37.166Z,7.07
2023-09-21T22:23:06.970Z,7.55
2023-09-21T22:25:36.111Z,6.00
2023-09-21T22:28:05.317Z,6.03
2023-09-21T22:30:35.094Z,6.47
2023-09-21T22:33:03.343Z,6.47
2023-09-21T22:35:32.326Z,7.10
2023-09-21T22:38:13.996Z,6.82
2023-09-21T22:40:43.826Z,7.15
2023-09-21T22:43:12.280Z,7.03
2023-09-21T22:45:42.009Z,5.63
2023-09-21T22:48:10.514Z,5.35
2023-09-21T22:50:39.543Z,7.00
2023-09-21T22:53:12.878Z,7.45
2023-09-21T22:55:43.668Z,7.20
2023-09-21T22:58:13.448Z,6.70
2023-09-21T23:00:44.258Z,7.32
2023-09-21T23:05:44.930Z,9.38
2023-09-21T23:08:13.560Z,6.82
2023-09-21T23:10:41.804Z,5.78
2023-09-21T23:13:10.714Z,7.10
2023-09-21T23:15:40.273Z,5.82
2023-09-21T23:18:11.853Z,9.70
2023-09-21T23:20:40.494Z,6.45
2023-09-21T23:23:09.360Z,4.97
2023-09-21T23:25:38.975Z,7.57
2023-09-21T23:28:10.063Z,10.02
2023-09-21T23:30:41.843Z,6.25
2023-09-21T23:33:14.811Z,7.75
2023-09-21T23:35:44.581Z,7.03
2023-09-21T23:38:16.881Z,8.07
2023-09-21T23:40:45.341Z,8.48
2023-09-21T23:43:13.619Z,9.68
2023-09-21T23:45:42.541Z,5.50
2023-09-21T23:48:12.598Z,7.28
2023-09-21T23:50:41.099Z,6.18
2023-09-21T23:53:15.301Z,7.38
2023-09-21T23:55:47.208Z,7.57
2023-09-21T23:58:16.425Z,7.03
